sensor_id;sensor_type;location;lat;lon;timestamp;P1;durP1;ratioP1;P2;durP2;ratioP2
82574;SDS011;72260;65.870;13.210;2023-11-19T00:00:15;0.73;;;0.73;;
82574;SDS011;72260;65.870;13.210;2023-11-19T00:02:41;0.95;;;0.75;;
82574;SDS011;72260;65.870;13.210;2023-11-19T00:05:07;0.60;;;0.60;;
82574;SDS011;72260;65.870;13.210;2023-11-19T00:07:39;0.85;;;0.80;;
82574;SDS011;72260;65.870;13.210;2023-11-19T00:10:07;1.45;;;0.80;;
82574;SDS011;72260;65.870;13.210;2023-11-19T00:12:42;0.80;;;0.70;;
82574;SDS011;72260;65.870;13.210;2023-11-19T00:15:09;0.60;;;0.60;;
82574;SDS011;72260;65.870;13.210;2023-11-19T00:17:39;0.85;;;0.60;;
82574;SDS011;72260;65.870;13.210;2023-11-19T00:20:18;0.75;;;0.63;;
82574;SDS011;72260;65.870;13.210;2023-11-19T00:22:44;0.77;;;0.77;;
82574;SDS011;72260;65.870;13.210;2023-11-19T00:25:19;0.80;;;0.80;;
82574;SDS011;72260;65.870;13.210;2023-11-19T00:27:46;1.17;;;0.70;;
82574;SDS011;72260;65.870;13.210;2023-11-19T00:30:12;0.57;;;0.52;;
82574;SDS011;72260;65.870;13.210;2023-11-19T00:32:38;2.58;;;0.90;;
82574;SDS011;72260;65.870;13.210;2023-11-19T00:35:07;0.63;;;0.40;;
82574;SDS011;72260;65.870;13.210;2023-11-19T00:37:35;0.95;;;0.80;;
82574;SDS011;72260;65.870;13.210;2023-11-19T00:40:01;0.65;;;0.45;;
82574;SDS011;72260;65.870;13.210;2023-11-19T00:42:30;0.52;;;0.52;;
82574;SDS011;72260;65.870;13.210;2023-11-19T00:44:56;0.93;;;0.65;;
82574;SDS011;72260;65.870;13.210;2023-11-19T00:47:21;0.60;;;0.57;;
82574;SDS011;72260;65.870;13.210;2023-11-19T00:49:47;0.60;;;0.40;;
82574;SDS011;72260;65.870;13.210;2023-11-19T00:52:16;0.90;;;0.80;;
82574;SDS011;72260;65.870;13.210;2023-11-19T00:54:42;0.60;;;0.60;;
82574;SDS011;72260;65.870;13.210;2023-11-19T00:57:08;0.60;;;0.60;;
82574;SDS011;72260;65.870;13.210;2023-11-19T00:59:34;2.47;;;0.68;;
82574;SDS011;72260;65.870;13.210;2023-11-19T01:02:00;0.55;;;0.55;;
82574;SDS011;72260;65.870;13.210;2023-11-19T01:06:58;1.20;;;0.70;;
82574;SDS011;72260;65.870;13.210;2023-11-19T01:09:23;0.40;;;0.40;;
82574;SDS011;72260;65.870;13.210;2023-11-19T01:11:49;0.65;;;0.52;;
82574;SDS011;72260;65.870;13.210;2023-11-19T01:14:14;1.08;;;0.80;;
82574;SDS011;72260;65.870;13.210;2023-11-19T01:16:40;0.40;;;0.40;;
82574;SDS011;72260;65.870;13.210;2023-11-19T01:19:05;0.82;;;0.68;;
82574;SDS011;72260;65.870;13.210;2023-11-19T01:21:30;0.52;;;0.45;;
82574;SDS011;72260;65.870;13.210;2023-11-19T01:23:59;1.00;;;0.75;;
82574;SDS011;72260;65.870;13.210;2023-11-19T01:26:25;3.40;;;0.93;;
82574;SDS011;72260;65.870;13.210;2023-11-19T01:28:50;1.60;;;0.75;;
82574;SDS011;72260;65.870;13.210;2023-11-19T01:31:17;0.70;;;0.70;;
82574;SDS011;72260;65.870;13.210;2023-11-19T01:33:43;0.88;;;0.75;;
82574;SDS011;72260;65.870;13.210;2023-11-19T01:36:09;0.70;;;0.70;;
82574;SDS011;72260;65.870;13.210;2023-11-19T01:38:37;0.63;;;0.63;;
82574;SDS011;72260;65.870;13.210;2023-11-19T01:41:03;0.60;;;0.60;;
82574;SDS011;72260;65.870;13.210;2023-11-19T01:43:35;0.93;;;0.85;;
82574;SDS011;72260;65.870;13.210;2023-11-19T01:46:07;0.80;;;0.80;;
82574;SDS011;72260;65.870;13.210;2023-11-19T01:48:37;0.93;;;0.65;;
82574;SDS011;72260;65.870;13.210;2023-11-19T01:51:06;0.88;;;0.55;;
82574;SDS011;72260;65.870;13.210;2023-11-19T01:53:33;0.73;;;0.57;;
82574;SDS011;72260;65.870;13.210;2023-11-19T01:56:01;0.85;;;0.80;;
82574;SDS011;72260;65.870;13.210;2023-11-19T01:58:27;0.75;;;0.63;;
82574;SDS011;72260;65.870;13.210;2023-11-19T02:00:55;1.02;;;0.93;;
82574;SDS011;72260;65.870;13.210;2023-11-19T02:03:22;0.50;;;0.50;;
82574;SDS011;72260;65.870;13.210;2023-11-19T02:05:51;1.02;;;0.70;;
82574;SDS011;72260;65.870;13.210;2023-11-19T02:08:18;0.98;;;0.70;;
82574;SDS011;72260;65.870;13.210;2023-11-19T02:10:44;0.88;;;0.60;;
82574;SDS011;72260;65.870;13.210;2023-11-19T02:13:09;1.17;;;0.70;;
82574;SDS011;72260;65.870;13.210;2023-11-19T02:15:35;0.82;;;0.50;;
82574;SDS011;72260;65.870;13.210;2023-11-19T02:18:20;1.02;;;0.80;;
82574;SDS011;72260;65.870;13.210;2023-11-19T02:20:47;0.65;;;0.60;;
82574;SDS011;72260;65.870;13.210;2023-11-19T02:23:14;1.30;;;0.77;;
82574;SDS011;72260;65.870;13.210;2023-11-19T02:25:40;1.80;;;0.77;;
82574;SDS011;72260;65.870;13.210;2023-11-19T02:28:06;0.77;;;0.68;;
82574;SDS011;72260;65.870;13.210;2023-11-19T02:30:32;2.40;;;0.47;;
82574;SDS011;72260;65.870;13.210;2023-11-19T02:32:58;1.13;;;0.68;;
82574;SDS011;72260;65.870;13.210;2023-11-19T02:35:28;1.17;;;0.80;;
82574;SDS011;72260;65.870;13.210;2023-11-19T02:37:56;0.20;;;0.20;;
82574;SDS011;72260;65.870;13.210;2023-11-19T02:40:22;3.92;;;1.10;;
82574;SDS011;72260;65.870;13.210;2023-11-19T02:42:54;1.10;;;1.00;;
82574;SDS011;72260;65.870;13.210;2023-11-19T02:47:47;1.00;;;0.93;;
82574;SDS011;72260;65.870;13.210;2023-11-19T02:50:12;0.73;;;0.73;;
82574;SDS011;72260;65.870;13.210;2023-11-19T02:52:41;0.47;;;0.47;;
82574;SDS011;72260;65.870;13.210;2023-11-19T02:55:08;0.52;;;0.47;;
82574;SDS011;72260;65.870;13.210;2023-11-19T02:57:43;0.52;;;0.45;;
82574;SDS011;72260;65.870;13.210;2023-11-19T03:00:17;0.50;;;0.50;;
82574;SDS011;72260;65.870;13.210;2023-11-19T03:02:43;0.68;;;0.65;;
82574;SDS011;72260;65.870;13.210;2023-11-19T03:05:14;1.20;;;0.88;;
82574;SDS011;72260;65.870;13.210;2023-11-19T03:07:42;0.82;;;0.73;;
82574;SDS011;72260;65.870;13.210;2023-11-19T03:10:10;1.05;;;0.80;;
82574;SDS011;72260;65.870;13.210;2023-11-19T03:12:43;0.57;;;0.40;;
82574;SDS011;72260;65.870;13.210;2023-11-19T03:15:10;0.52;;;0.47;;
82574;SDS011;72260;65.870;13.210;2023-11-19T03:17:38;0.75;;;0.65;;
82574;SDS011;72260;65.870;13.210;2023-11-19T03:20:07;0.70;;;0.60;;
82574;SDS011;72260;65.870;13.210;2023-11-19T03:22:35;0.55;;;0.55;;
82574;SDS011;72260;65.870;13.210;2023-11-19T03:25:01;0.50;;;0.38;;
82574;SDS011;72260;65.870;13.210;2023-11-19T03:27:27;0.50;;;0.50;;
82574;SDS011;72260;65.870;13.210;2023-11-19T03:29:52;0.63;;;0.60;;
82574;SDS011;72260;65.870;13.210;2023-11-19T03:32:18;0.82;;;0.47;;
82574;SDS011;72260;65.870;13.210;2023-11-19T03:34:43;0.50;;;0.50;;
82574;SDS011;72260;65.870;13.210;2023-11-19T03:37:09;0.93;;;0.70;;
82574;SDS011;72260;65.870;13.210;2023-11-19T03:39:35;0.43;;;0.40;;
82574;SDS011;72260;65.870;13.210;2023-11-19T03:42:00;0.80;;;0.80;;
82574;SDS011;72260;65.870;13.210;2023-11-19T03:44:26;0.40;;;0.40;;
82574;SDS011;72260;65.870;13.210;2023-11-19T03:46:52;1.00;;;0.70;;
82574;SDS011;72260;65.870;13.210;2023-11-19T03:49:18;1.45;;;0.60;;
82574;SDS011;72260;65.870;13.210;2023-11-19T03:51:43;0.68;;;0.68;;
82574;SDS011;72260;65.870;13.210;2023-11-19T03:54:09;0.90;;;0.57;;
82574;SDS011;72260;65.870;13.210;2023-11-19T03:56:34;0.65;;;0.35;;
82574;SDS011;72260;65.870;13.210;2023-11-19T03:59:00;0.70;;;0.70;;
82574;SDS011;72260;65.870;13.210;2023-11-19T04:01:25;0.63;;;0.60;;
82574;SDS011;72260;65.870;13.210;2023-11-19T04:03:51;0.70;;;0.70;;
82574;SDS011;72260;65.870;13.210;2023-11-19T04:06:16;0.50;;;0.50;;
82574;SDS011;72260;65.870;13.210;2023-11-19T04:08:42;0.52;;;0.50;;
82574;SDS011;72260;65.870;13.210;2023-11-19T04:11:08;0.80;;;0.60;;
82574;SDS011;72260;65.870;13.210;2023-11-19T04:13:33;1.02;;;0.60;;
82574;SDS011;72260;65.870;13.210;2023-11-19T04:15:59;0.38;;;0.38;;
82574;SDS011;72260;65.870;13.210;2023-11-19T04:18:25;0.40;;;0.40;;
82574;SDS011;72260;65.870;13.210;2023-11-19T04:20:50;0.60;;;0.52;;
82574;SDS011;72260;65.870;13.210;2023-11-19T04:23:16;0.40;;;0.40;;
82574;SDS011;72260;65.870;13.210;2023-11-19T04:25:41;0.60;;;0.60;;
82574;SDS011;72260;65.870;13.210;2023-11-19T04:28:07;0.38;;;0.38;;
82574;SDS011;72260;65.870;13.210;2023-11-19T04:30:33;0.50;;;0.50;;
82574;SDS011;72260;65.870;13.210;2023-11-19T04:32:59;0.75;;;0.60;;
82574;SDS011;72260;65.870;13.210;2023-11-19T04:35:24;0.43;;;0.43;;
82574;SDS011;72260;65.870;13.210;2023-11-19T04:37:51;0.35;;;0.35;;
82574;SDS011;72260;65.870;13.210;2023-11-19T04:40:16;0.50;;;0.50;;
82574;SDS011;72260;65.870;13.210;2023-11-19T04:42:43;0.77;;;0.50;;
82574;SDS011;72260;65.870;13.210;2023-11-19T04:45:09;0.50;;;0.50;;
82574;SDS011;72260;65.870;13.210;2023-11-19T04:47:35;0.98;;;0.65;;
82574;SDS011;72260;65.870;13.210;2023-11-19T04:50:02;0.50;;;0.50;;
82574;SDS011;72260;65.870;13.210;2023-11-19T04:52:28;0.47;;;0.47;;
82574;SDS011;72260;65.870;13.210;2023-11-19T04:54:54;0.50;;;0.45;;
82574;SDS011;72260;65.870;13.210;2023-11-19T04:57:19;0.60;;;0.60;;
82574;SDS011;72260;65.870;13.210;2023-11-19T04:59:45;0.47;;;0.38;;
82574;SDS011;72260;65.870;13.210;2023-11-19T05:02:10;0.70;;;0.57;;
82574;SDS011;72260;65.870;13.210;2023-11-19T05:04:35;0.60;;;0.60;;
82574;SDS011;72260;65.870;13.210;2023-11-19T05:07:02;0.68;;;0.65;;
82574;SDS011;72260;65.870;13.210;2023-11-19T05:09:28;0.47;;;0.47;;
82574;SDS011;72260;65.870;13.210;2023-11-19T05:11:55;0.47;;;0.45;;
82574;SDS011;72260;65.870;13.210;2023-11-19T05:14:21;0.73;;;0.73;;
82574;SDS011;72260;65.870;13.210;2023-11-19T05:16:47;0.60;;;0.60;;
82574;SDS011;72260;65.870;13.210;2023-11-19T05:19:12;0.50;;;0.50;;
82574;SDS011;72260;65.870;13.210;2023-11-19T05:21:41;0.95;;;0.57;;
82574;SDS011;72260;65.870;13.210;2023-11-19T05:24:07;0.40;;;0.40;;
82574;SDS011;72260;65.870;13.210;2023-11-19T05:26:33;0.20;;;0.20;;
82574;SDS011;72260;65.870;13.210;2023-11-19T05:28:59;3.88;;;0.52;;
82574;SDS011;72260;65.870;13.210;2023-11-19T05:31:24;0.50;;;0.50;;
82574;SDS011;72260;65.870;13.210;2023-11-19T05:33:49;0.60;;;0.60;;
82574;SDS011;72260;65.870;13.210;2023-11-19T05:36:15;0.57;;;0.50;;
82574;SDS011;72260;65.870;13.210;2023-11-19T05:38:41;0.50;;;0.50;;
82574;SDS011;72260;65.870;13.210;2023-11-19T05:41:06;0.98;;;0.75;;
82574;SDS011;72260;65.870;13.210;2023-11-19T05:43:32;0.60;;;0.60;;
82574;SDS011;72260;65.870;13.210;2023-11-19T05:45:57;1.45;;;0.70;;
82574;SDS011;72260;65.870;13.210;2023-11-19T05:48:24;0.47;;;0.40;;
82574;SDS011;72260;65.870;13.210;2023-11-19T05:50:51;0.43;;;0.43;;
82574;SDS011;72260;65.870;13.210;2023-11-19T05:53:16;0.70;;;0.55;;
82574;SDS011;72260;65.870;13.210;2023-11-19T05:55:42;0.85;;;0.80;;
82574;SDS011;72260;65.870;13.210;2023-11-19T05:58:26;1.45;;;0.57;;
82574;SDS011;72260;65.870;13.210;2023-11-19T06:00:54;0.28;;;0.28;;
82574;SDS011;72260;65.870;13.210;2023-11-19T06:03:22;0.30;;;0.30;;
82574;SDS011;72260;65.870;13.210;2023-11-19T06:05:48;0.57;;;0.47;;
82574;SDS011;72260;65.870;13.210;2023-11-19T06:08:14;0.52;;;0.52;;
82574;SDS011;72260;65.870;13.210;2023-11-19T06:10:40;1.60;;;0.77;;
82574;SDS011;72260;65.870;13.210;2023-11-19T06:13:06;0.68;;;0.68;;
82574;SDS011;72260;65.870;13.210;2023-11-19T06:15:35;0.40;;;0.30;;
82574;SDS011;72260;65.870;13.210;2023-11-19T06:18:01;0.55;;;0.55;;
82574;SDS011;72260;65.870;13.210;2023-11-19T06:20:28;0.35;;;0.32;;
82574;SDS011;72260;65.870;13.210;2023-11-19T06:22:56;0.93;;;0.75;;
82574;SDS011;72260;65.870;13.210;2023-11-19T06:25:23;0.75;;;0.75;;
82574;SDS011;72260;65.870;13.210;2023-11-19T06:27:51;0.60;;;0.60;;
82574;SDS011;72260;65.870;13.210;2023-11-19T06:30:17;0.40;;;0.40;;
82574;SDS011;72260;65.870;13.210;2023-11-19T06:32:43;1.58;;;0.73;;
82574;SDS011;72260;65.870;13.210;2023-11-19T06:35:09;0.85;;;0.60;;
82574;SDS011;72260;65.870;13.210;2023-11-19T06:37:35;0.68;;;0.68;;
82574;SDS011;72260;65.870;13.210;2023-11-19T06:40:03;0.28;;;0.28;;
82574;SDS011;72260;65.870;13.210;2023-11-19T06:42:30;0.70;;;0.60;;
82574;SDS011;72260;65.870;13.210;2023-11-19T06:44:55;0.60;;;0.52;;
82574;SDS011;72260;65.870;13.210;2023-11-19T06:47:22;0.70;;;0.70;;
82574;SDS011;72260;65.870;13.210;2023-11-19T06:49:52;0.50;;;0.50;;
82574;SDS011;72260;65.870;13.210;2023-11-19T06:52:17;0.57;;;0.57;;
82574;SDS011;72260;65.870;13.210;2023-11-19T06:54:43;1.17;;;0.70;;
82574;SDS011;72260;65.870;13.210;2023-11-19T06:57:10;0.47;;;0.40;;
82574;SDS011;72260;65.870;13.210;2023-11-19T06:59:36;0.80;;;0.80;;
82574;SDS011;72260;65.870;13.210;2023-11-19T07:02:02;0.50;;;0.50;;
82574;SDS011;72260;65.870;13.210;2023-11-19T07:04:29;1.02;;;0.60;;
82574;SDS011;72260;65.870;13.210;2023-11-19T07:06:55;0.77;;;0.68;;
82574;SDS011;72260;65.870;13.210;2023-11-19T07:09:20;0.70;;;0.70;;
82574;SDS011;72260;65.870;13.210;2023-11-19T07:11:46;0.85;;;0.70;;
82574;SDS011;72260;65.870;13.210;2023-11-19T07:14:12;0.40;;;0.40;;
82574;SDS011;72260;65.870;13.210;2023-11-19T07:16:37;0.95;;;0.70;;
82574;SDS011;72260;65.870;13.210;2023-11-19T07:19:04;0.47;;;0.47;;
82574;SDS011;72260;65.870;13.210;2023-11-19T07:21:31;0.73;;;0.60;;
82574;SDS011;72260;65.870;13.210;2023-11-19T07:23:58;1.40;;;1.25;;
82574;SDS011;72260;65.870;13.210;2023-11-19T07:26:24;6.47;;;0.90;;
82574;SDS011;72260;65.870;13.210;2023-11-19T07:28:49;0.63;;;0.45;;
82574;SDS011;72260;65.870;13.210;2023-11-19T07:31:15;0.65;;;0.60;;
82574;SDS011;72260;65.870;13.210;2023-11-19T07:33:41;0.43;;;0.43;;
82574;SDS011;72260;65.870;13.210;2023-11-19T07:36:08;1.25;;;0.90;;
82574;SDS011;72260;65.870;13.210;2023-11-19T07:38:34;2.10;;;0.90;;
82574;SDS011;72260;65.870;13.210;2023-11-19T07:41:00;0.90;;;0.70;;
82574;SDS011;72260;65.870;13.210;2023-11-19T07:43:25;0.80;;;0.75;;
82574;SDS011;72260;65.870;13.210;2023-11-19T07:45:51;0.63;;;0.55;;
82574;SDS011;72260;65.870;13.210;2023-11-19T07:48:17;2.53;;;0.65;;
82574;SDS011;72260;65.870;13.210;2023-11-19T07:50:47;1.15;;;0.88;;
82574;SDS011;72260;65.870;13.210;2023-11-19T07:53:15;0.90;;;0.82;;
82574;SDS011;72260;65.870;13.210;2023-11-19T07:55:41;1.48;;;0.65;;
82574;SDS011;72260;65.870;13.210;2023-11-19T07:58:07;1.65;;;0.85;;
82574;SDS011;72260;65.870;13.210;2023-11-19T08:00:32;0.93;;;0.75;;
82574;SDS011;72260;65.870;13.210;2023-11-19T08:02:58;1.20;;;0.98;;
82574;SDS011;72260;65.870;13.210;2023-11-19T08:05:23;0.90;;;0.73;;
82574;SDS011;72260;65.870;13.210;2023-11-19T08:07:49;1.50;;;0.93;;
82574;SDS011;72260;65.870;13.210;2023-11-19T08:10:18;0.85;;;0.52;;
82574;SDS011;72260;65.870;13.210;2023-11-19T08:12:44;1.08;;;0.70;;
82574;SDS011;72260;65.870;13.210;2023-11-19T08:15:09;1.10;;;1.00;;
82574;SDS011;72260;65.870;13.210;2023-11-19T08:17:35;3.17;;;1.00;;
82574;SDS011;72260;65.870;13.210;2023-11-19T08:20:02;1.10;;;0.93;;
82574;SDS011;72260;65.870;13.210;2023-11-19T08:22:30;3.45;;;1.70;;
82574;SDS011;72260;65.870;13.210;2023-11-19T08:24:55;2.05;;;1.35;;
82574;SDS011;72260;65.870;13.210;2023-11-19T08:27:21;0.93;;;0.77;;
82574;SDS011;72260;65.870;13.210;2023-11-19T08:29:53;1.10;;;0.80;;
82574;SDS011;72260;65.870;13.210;2023-11-19T08:32:20;2.17;;;0.65;;
82574;SDS011;72260;65.870;13.210;2023-11-19T08:34:46;0.75;;;0.63;;
82574;SDS011;72260;65.870;13.210;2023-11-19T08:37:11;2.28;;;1.40;;
82574;SDS011;72260;65.870;13.210;2023-11-19T08:39:38;2.30;;;1.10;;
82574;SDS011;72260;65.870;13.210;2023-11-19T08:42:04;1.45;;;1.05;;
82574;SDS011;72260;65.870;13.210;2023-11-19T08:44:29;1.30;;;0.88;;
82574;SDS011;72260;65.870;13.210;2023-11-19T08:46:55;0.85;;;0.73;;
82574;SDS011;72260;65.870;13.210;2023-11-19T08:49:20;1.05;;;0.90;;
82574;SDS011;72260;65.870;13.210;2023-11-19T08:51:46;0.70;;;0.50;;
82574;SDS011;72260;65.870;13.210;2023-11-19T08:54:11;0.98;;;0.73;;
82574;SDS011;72260;65.870;13.210;2023-11-19T08:56:38;1.52;;;1.20;;
82574;SDS011;72260;65.870;13.210;2023-11-19T08:59:04;1.33;;;0.82;;
82574;SDS011;72260;65.870;13.210;2023-11-19T09:01:30;0.80;;;0.55;;
82574;SDS011;72260;65.870;13.210;2023-11-19T09:03:55;1.52;;;0.93;;
82574;SDS011;72260;65.870;13.210;2023-11-19T09:06:21;0.98;;;0.60;;
82574;SDS011;72260;65.870;13.210;2023-11-19T09:08:47;0.65;;;0.65;;
82574;SDS011;72260;65.870;13.210;2023-11-19T09:11:12;1.33;;;0.90;;
82574;SDS011;72260;65.870;13.210;2023-11-19T09:13:38;1.17;;;0.90;;
82574;SDS011;72260;65.870;13.210;2023-11-19T09:16:03;1.02;;;0.93;;
82574;SDS011;72260;65.870;13.210;2023-11-19T09:18:29;0.70;;;0.70;;
82574;SDS011;72260;65.870;13.210;2023-11-19T09:20:55;0.93;;;0.60;;
82574;SDS011;72260;65.870;13.210;2023-11-19T09:23:21;1.00;;;0.90;;
82574;SDS011;72260;65.870;13.210;2023-11-19T09:25:46;2.47;;;1.08;;
82574;SDS011;72260;65.870;13.210;2023-11-19T09:28:12;0.93;;;0.82;;
82574;SDS011;72260;65.870;13.210;2023-11-19T09:30:39;1.30;;;1.00;;
82574;SDS011;72260;65.870;13.210;2023-11-19T09:33:05;0.50;;;0.50;;
82574;SDS011;72260;65.870;13.210;2023-11-19T09:35:30;0.80;;;0.65;;
82574;SDS011;72260;65.870;13.210;2023-11-19T09:37:56;0.88;;;0.88;;
82574;SDS011;72260;65.870;13.210;2023-11-19T09:40:21;2.28;;;1.20;;
82574;SDS011;72260;65.870;13.210;2023-11-19T09:42:47;1.27;;;0.90;;
82574;SDS011;72260;65.870;13.210;2023-11-19T09:45:14;1.60;;;0.90;;
82574;SDS011;72260;65.870;13.210;2023-11-19T09:47:45;2.05;;;1.00;;
82574;SDS011;72260;65.870;13.210;2023-11-19T09:50:13;0.73;;;0.73;;
82574;SDS011;72260;65.870;13.210;2023-11-19T09:52:41;1.88;;;1.15;;
82574;SDS011;72260;65.870;13.210;2023-11-19T09:55:07;0.73;;;0.70;;
82574;SDS011;72260;65.870;13.210;2023-11-19T09:57:33;1.17;;;0.90;;
82574;SDS011;72260;65.870;13.210;2023-11-19T10:00:02;2.95;;;1.02;;
82574;SDS011;72260;65.870;13.210;2023-11-19T10:02:31;1.27;;;1.00;;
82574;SDS011;72260;65.870;13.210;2023-11-19T10:04:58;1.42;;;0.90;;
82574;SDS011;72260;65.870;13.210;2023-11-19T10:07:26;1.55;;;0.60;;
82574;SDS011;72260;65.870;13.210;2023-11-19T10:09:52;1.92;;;0.90;;
82574;SDS011;72260;65.870;13.210;2023-11-19T10:12:18;1.20;;;1.00;;
82574;SDS011;72260;65.870;13.210;2023-11-19T10:14:43;2.10;;;0.90;;
82574;SDS011;72260;65.870;13.210;2023-11-19T10:17:11;0.80;;;0.70;;
82574;SDS011;72260;65.870;13.210;2023-11-19T10:19:36;1.20;;;1.10;;
82574;SDS011;72260;65.870;13.210;2023-11-19T10:22:04;3.03;;;1.13;;
82574;SDS011;72260;65.870;13.210;2023-11-19T10:24:31;1.35;;;1.00;;
82574;SDS011;72260;65.870;13.210;2023-11-19T10:27:00;2.03;;;1.10;;
82574;SDS011;72260;65.870;13.210;2023-11-19T10:29:29;1.52;;;1.23;;
82574;SDS011;72260;65.870;13.210;2023-11-19T10:31:55;1.40;;;1.00;;
82574;SDS011;72260;65.870;13.210;2023-11-19T10:34:26;2.92;;;1.10;;
82574;SDS011;72260;65.870;13.210;2023-11-19T10:36:52;1.42;;;0.88;;
82574;SDS011;72260;65.870;13.210;2023-11-19T10:39:17;1.95;;;1.27;;
82574;SDS011;72260;65.870;13.210;2023-11-19T10:41:43;2.25;;;1.13;;
82574;SDS011;72260;65.870;13.210;2023-11-19T10:44:09;2.35;;;1.45;;
82574;SDS011;72260;65.870;13.210;2023-11-19T10:46:38;1.60;;;1.27;;
82574;SDS011;72260;65.870;13.210;2023-11-19T10:49:05;1.48;;;1.10;;
82574;SDS011;72260;65.870;13.210;2023-11-19T10:51:34;1.15;;;0.82;;
82574;SDS011;72260;65.870;13.210;2023-11-19T10:54:04;0.90;;;0.88;;
82574;SDS011;72260;65.870;13.210;2023-11-19T10:56:31;1.15;;;0.93;;
82574;SDS011;72260;65.870;13.210;2023-11-19T10:58:59;2.05;;;1.00;;
82574;SDS011;72260;65.870;13.210;2023-11-19T11:01:26;2.75;;;1.20;;
82574;SDS011;72260;65.870;13.210;2023-11-19T11:03:59;2.20;;;0.98;;
82574;SDS011;72260;65.870;13.210;2023-11-19T11:06:26;1.40;;;1.02;;
82574;SDS011;72260;65.870;13.210;2023-11-19T11:08:52;1.10;;;0.90;;
82574;SDS011;72260;65.870;13.210;2023-11-19T11:11:19;1.45;;;0.70;;
82574;SDS011;72260;65.870;13.210;2023-11-19T11:13:49;1.42;;;1.10;;
82574;SDS011;72260;65.870;13.210;2023-11-19T11:16:19;2.83;;;1.00;;
82574;SDS011;72260;65.870;13.210;2023-11-19T11:18:46;2.15;;;1.10;;
82574;SDS011;72260;65.870;13.210;2023-11-19T11:21:15;1.92;;;1.23;;
82574;SDS011;72260;65.870;13.210;2023-11-19T11:29:44;2.63;;;1.00;;
82574;SDS011;72260;65.870;13.210;2023-11-19T11:32:33;1.00;;;0.77;;
82574;SDS011;72260;65.870;13.210;2023-11-19T11:35:19;0.90;;;0.75;;
82574;SDS011;72260;65.870;13.210;2023-11-19T11:38:08;0.70;;;0.70;;
82574;SDS011;72260;65.870;13.210;2023-11-19T11:40:34;2.72;;;1.13;;
82574;SDS011;72260;65.870;13.210;2023-11-19T11:43:01;1.45;;;0.93;;
82574;SDS011;72260;65.870;13.210;2023-11-19T11:45:37;2.00;;;1.10;;
82574;SDS011;72260;65.870;13.210;2023-11-19T11:48:17;1.23;;;0.95;;
82574;SDS011;72260;65.870;13.210;2023-11-19T11:50:50;7.18;;;1.70;;
82574;SDS011;72260;65.870;13.210;2023-11-19T11:53:21;3.80;;;1.65;;
82574;SDS011;72260;65.870;13.210;2023-11-19T11:58:26;3.25;;;1.20;;
82574;SDS011;72260;65.870;13.210;2023-11-19T12:00:56;1.52;;;1.15;;
82574;SDS011;72260;65.870;13.210;2023-11-19T12:03:23;2.78;;;1.83;;
82574;SDS011;72260;65.870;13.210;2023-11-19T12:05:48;3.25;;;1.80;;
82574;SDS011;72260;65.870;13.210;2023-11-19T12:08:15;2.38;;;1.60;;
82574;SDS011;72260;65.870;13.210;2023-11-19T12:13:18;6.40;;;2.10;;
82574;SDS011;72260;65.870;13.210;2023-11-19T12:20:54;2.03;;;1.05;;
82574;SDS011;72260;65.870;13.210;2023-11-19T12:23:21;0.52;;;0.52;;
82574;SDS011;72260;65.870;13.210;2023-11-19T12:25:47;1.27;;;0.80;;
82574;SDS011;72260;65.870;13.210;2023-11-19T12:28:13;1.65;;;0.63;;
82574;SDS011;72260;65.870;13.210;2023-11-19T12:30:41;0.80;;;0.57;;
82574;SDS011;72260;65.870;13.210;2023-11-19T12:33:10;0.95;;;0.63;;
82574;SDS011;72260;65.870;13.210;2023-11-19T12:35:43;3.30;;;1.35;;
82574;SDS011;72260;65.870;13.210;2023-11-19T12:38:24;1.90;;;1.15;;
82574;SDS011;72260;65.870;13.210;2023-11-19T12:41:06;1.35;;;1.10;;
82574;SDS011;72260;65.870;13.210;2023-11-19T12:43:33;1.25;;;0.88;;
82574;SDS011;72260;65.870;13.210;2023-11-19T12:45:59;1.13;;;1.00;;
82574;SDS011;72260;65.870;13.210;2023-11-19T12:48:25;0.88;;;0.60;;
82574;SDS011;72260;65.870;13.210;2023-11-19T12:50:51;1.38;;;1.15;;
82574;SDS011;72260;65.870;13.210;2023-11-19T12:53:21;0.95;;;0.70;;
82574;SDS011;72260;65.870;13.210;2023-11-19T12:55:48;1.00;;;1.00;;
82574;SDS011;72260;65.870;13.210;2023-11-19T12:58:30;0.90;;;0.68;;
82574;SDS011;72260;65.870;13.210;2023-11-19T13:03:32;0.88;;;0.60;;
82574;SDS011;72260;65.870;13.210;2023-11-19T13:06:05;0.65;;;0.65;;
82574;SDS011;72260;65.870;13.210;2023-11-19T13:08:47;1.25;;;0.65;;
82574;SDS011;72260;65.870;13.210;2023-11-19T13:11:15;1.17;;;0.77;;
82574;SDS011;72260;65.870;13.210;2023-11-19T13:13:55;2.05;;;0.75;;
82574;SDS011;72260;65.870;13.210;2023-11-19T13:16:33;1.38;;;1.15;;
82574;SDS011;72260;65.870;13.210;2023-11-19T13:19:01;1.35;;;1.25;;
82574;SDS011;72260;65.870;13.210;2023-11-19T13:21:28;1.20;;;0.90;;
82574;SDS011;72260;65.870;13.210;2023-11-19T13:23:54;1.48;;;1.33;;
82574;SDS011;72260;65.870;13.210;2023-11-19T13:26:20;2.28;;;0.82;;
82574;SDS011;72260;65.870;13.210;2023-11-19T13:28:46;1.17;;;1.00;;
82574;SDS011;72260;65.870;13.210;2023-11-19T13:31:11;1.15;;;0.85;;
82574;SDS011;72260;65.870;13.210;2023-11-19T13:33:37;0.82;;;0.63;;
82574;SDS011;72260;65.870;13.210;2023-11-19T13:36:04;2.08;;;0.85;;
82574;SDS011;72260;65.870;13.210;2023-11-19T13:38:36;0.60;;;0.60;;
82574;SDS011;72260;65.870;13.210;2023-11-19T13:41:02;1.35;;;1.10;;
82574;SDS011;72260;65.870;13.210;2023-11-19T13:43:29;0.85;;;0.77;;
82574;SDS011;72260;65.870;13.210;2023-11-19T13:45:55;2.15;;;1.23;;
82574;SDS011;72260;65.870;13.210;2023-11-19T13:48:21;3.60;;;1.08;;
82574;SDS011;72260;65.870;13.210;2023-11-19T13:50:47;5.03;;;1.13;;
82574;SDS011;72260;65.870;13.210;2023-11-19T13:53:13;2.30;;;0.98;;
82574;SDS011;72260;65.870;13.210;2023-11-19T13:55:38;2.05;;;1.38;;
82574;SDS011;72260;65.870;13.210;2023-11-19T13:58:04;1.95;;;1.20;;
82574;SDS011;72260;65.870;13.210;2023-11-19T14:00:29;2.40;;;1.10;;
82574;SDS011;72260;65.870;13.210;2023-11-19T14:02:55;3.53;;;1.73;;
82574;SDS011;72260;65.870;13.210;2023-11-19T14:05:20;2.58;;;1.40;;
82574;SDS011;72260;65.870;13.210;2023-11-19T14:07:46;6.05;;;1.70;;
82574;SDS011;72260;65.870;13.210;2023-11-19T14:10:16;3.28;;;1.40;;
82574;SDS011;72260;65.870;13.210;2023-11-19T14:12:42;1.95;;;1.48;;
82574;SDS011;72260;65.870;13.210;2023-11-19T14:15:08;4.15;;;1.35;;
82574;SDS011;72260;65.870;13.210;2023-11-19T14:17:37;2.58;;;1.33;;
82574;SDS011;72260;65.870;13.210;2023-11-19T14:20:03;1.33;;;1.08;;
82574;SDS011;72260;65.870;13.210;2023-11-19T14:22:41;1.30;;;0.98;;
82574;SDS011;72260;65.870;13.210;2023-11-19T14:25:11;2.38;;;1.25;;
82574;SDS011;72260;65.870;13.210;2023-11-19T14:27:40;1.73;;;0.98;;
82574;SDS011;72260;65.870;13.210;2023-11-19T14:32:33;1.48;;;1.38;;
82574;SDS011;72260;65.870;13.210;2023-11-19T14:35:00;1.45;;;1.17;;
82574;SDS011;72260;65.870;13.210;2023-11-19T14:37:26;2.65;;;1.42;;
82574;SDS011;72260;65.870;13.210;2023-11-19T14:39:51;2.78;;;1.45;;
82574;SDS011;72260;65.870;13.210;2023-11-19T14:42:17;1.77;;;1.00;;
82574;SDS011;72260;65.870;13.210;2023-11-19T14:44:42;4.05;;;1.55;;
82574;SDS011;72260;65.870;13.210;2023-11-19T14:47:08;2.47;;;1.52;;
82574;SDS011;72260;65.870;13.210;2023-11-19T14:49:37;2.28;;;1.50;;
82574;SDS011;72260;65.870;13.210;2023-11-19T14:52:03;1.30;;;1.02;;
82574;SDS011;72260;65.870;13.210;2023-11-19T14:54:29;1.35;;;1.00;;
82574;SDS011;72260;65.870;13.210;2023-11-19T14:56:56;3.25;;;1.80;;
82574;SDS011;72260;65.870;13.210;2023-11-19T14:59:21;1.55;;;1.02;;